Team Galati — WDH7521 — position and weather

sailwx.info

Track history (hours):
 
Tides and Currents Weather Stations Pressure Air Temp Water Temp Dewpoint Dewpoint Depression Visibility Wind Speed Wind Dir Waves Ship Positions

Team Galati

Owner: M. Hixson Aviation LLC, Dallas, TX. More information available from US FCC via Universal Licensing System and Coast Guard Vessel Documentation Center.

Last reported at 2017-Nov-24 03:51 UTC. Time now 2017-Nov-24 04:03 UTC.
Position N 26°12' W 080°06'.

Length 34 m.

Type: Pleasure craft. MMSI: 367649010.

Date/timePositionNaut miles runAvg speedWind from/ knotsBaromVisibWave heightAir tempDewpointWater temp
2017-Nov-24 03:51N 26°12' W 080°06'0 0.0
2017-Nov-24 03:27N 26°12' W 080°06'0 0.0
2017-Nov-24 02:27N 26°12' W 080°06'0 0.0
2017-Nov-24 01:27N 26°12' W 080°06'0 0.0
2017-Nov-24 00:57N 26°12' W 080°06'0 0.0
2017-Nov-23 23:57N 26°12' W 080°06'0 0.0
2017-Nov-23 22:15N 26°12' W 080°06'0 0.0
2017-Nov-23 21:57N 26°12' W 080°06'0 0.0
2017-Nov-23 21:15N 26°12' W 080°06'0 0.0
2017-Nov-23 20:21N 26°12' W 080°06'0 0.0
2017-Nov-23 19:33N 26°12' W 080°06'0 0.0
2017-Nov-23 19:21N 26°12' W 080°06'0 0.0
2017-Nov-23 18:51N 26°12' W 080°06'0 0.0
2017-Nov-23 18:21N 26°12' W 080°06'0 0.0
2017-Nov-23 17:51N 26°12' W 080°06'0 0.0
2017-Nov-23 17:09N 26°12' W 080°06'0 0.0
2017-Nov-23 16:33N 26°12' W 080°06'0 0.0
2017-Nov-23 16:09N 26°12' W 080°06'0 0.0
2017-Nov-23 15:51N 26°12' W 080°06'0 0.0
2017-Nov-23 15:27N 26°12' W 080°06'0 0.0
2017-Nov-23 14:09N 26°12' W 080°06'0 0.0
2017-Nov-23 13:39N 26°12' W 080°06'0 0.0
2017-Nov-23 13:27N 26°12' W 080°06'0 0.0
2017-Nov-23 12:39N 26°12' W 080°06'0 0.0
2017-Nov-23 12:27N 26°12' W 080°06'0 0.0
2017-Nov-23 11:27N 26°12' W 080°06'0 0.0
2017-Nov-23 07:45N 26°12' W 080°06'0 0.0
2017-Nov-23 05:51N 26°12' W 080°06'0 0.0
2017-Nov-23 05:21N 26°12' W 080°06'0 0.0
2017-Nov-23 04:51N 26°12' W 080°06'0 0.0
2017-Nov-23 04:21N 26°12' W 080°06'0 0.0
2017-Nov-23 03:51N 26°12' W 080°06'0 0.0
2017-Nov-23 03:21N 26°12' W 080°06'0 0.0
2017-Nov-23 02:51N 26°12' W 080°06'0 0.0
2017-Nov-23 02:21N 26°12' W 080°06'0 0.0
2017-Nov-23 01:51N 26°12' W 080°06'0 0.0
2017-Nov-23 01:27N 26°12' W 080°06'0 0.0
2017-Nov-23 00:09N 26°12' W 080°06'0 0.0
2017-Nov-22 22:57N 26°12' W 080°06'0 0.0
2017-Nov-22 20:27N 26°12' W 080°06'0 0.0
2017-Nov-22 19:33N 26°12' W 080°06'  
2017-Nov-18 20:30N 26°11' W 080°06'3 6.3
2017-Nov-18 20:00N 26°08' W 080°07'1 2.6
2017-Nov-18 19:25N 26°07' W 080°07'3 5.5
2017-Nov-18 18:53N 26°07' W 080°04'3 7.5
2017-Nov-18 18:26N 26°07' W 080°07'2 4.0
2017-Nov-18 17:55N 26°06' W 080°10'1 2.9
2017-Nov-18 17:28N 26°05' W 080°11'0 0.0
2017-Nov-18 16:49N 26°05' W 080°11'0 0.0
2017-Nov-18 16:19N 26°05' W 080°11'0 0.0
2017-Nov-18 15:49N 26°05' W 080°11'0 0.0
2017-Nov-18 15:22N 26°05' W 080°11'0 0.0
2017-Nov-18 14:49N 26°05' W 080°11'0 0.1
2017-Nov-18 14:19N 26°05' W 080°11'0 0.0
2017-Nov-18 13:52N 26°05' W 080°11'0 0.1
2017-Nov-18 13:22N 26°05' W 080°11'0 0.0
2017-Nov-18 12:55N 26°05' W 080°11'0 0.0
2017-Nov-18 12:25N 26°05' W 080°11'0 0.0
2017-Nov-18 11:55N 26°05' W 080°11'0 0.0
2017-Nov-18 11:25N 26°05' W 080°11'0 0.0
2017-Nov-18 10:55N 26°05' W 080°11'0 0.0
2017-Nov-18 10:28N 26°05' W 080°11'0 0.0
2017-Nov-18 09:58N 26°05' W 080°11'0 0.0
2017-Nov-18 09:25N 26°05' W 080°11'1 1.2
2017-Nov-18 08:58N 26°05' W 080°11'1 1.1
2017-Nov-18 08:28N 26°05' W 080°11'0 0.0
2017-Nov-18 07:28N 26°05' W 080°11'0 0.0
2017-Nov-18 06:58N 26°05' W 080°11'0 0.0
2017-Nov-18 06:28N 26°05' W 080°11'0 0.0
2017-Nov-18 05:58N 26°05' W 080°11'0 0.0
2017-Nov-18 05:28N 26°05' W 080°11'0 0.0
2017-Nov-18 04:58N 26°05' W 080°11'0 0.0
2017-Nov-18 04:28N 26°05' W 080°11'0 0.0
2017-Nov-18 03:58N 26°05' W 080°11'0 0.0
2017-Nov-18 03:19N 26°05' W 080°11'0 0.0
2017-Nov-18 02:52N 26°05' W 080°11'0 0.0
2017-Nov-18 02:19N 26°05' W 080°11'0 0.0
2017-Nov-18 01:52N 26°05' W 080°11'0 0.0
2017-Nov-18 01:22N 26°05' W 080°11'0 0.0
2017-Nov-18 00:52N 26°05' W 080°11'0 0.0
2017-Nov-18 00:22N 26°05' W 080°11'0 0.0
2017-Nov-17 23:55N 26°05' W 080°11'0 0.0
2017-Nov-17 23:25N 26°05' W 080°11'0 0.0
2017-Nov-17 22:52N 26°05' W 080°11'0 0.0
2017-Nov-17 22:25N 26°05' W 080°11'0 0.0
2017-Nov-17 21:55N 26°05' W 080°11'0 0.0
2017-Nov-17 21:25N 26°05' W 080°11'0 0.0
2017-Nov-17 20:52N 26°05' W 080°11'0 0.0
2017-Nov-17 20:25N 26°05' W 080°11'0 0.0
2017-Nov-17 19:58N 26°05' W 080°11'0 0.0
2017-Nov-17 19:28N 26°05' W 080°11'0 0.0
2017-Nov-17 18:58N 26°05' W 080°11'0 0.0
2017-Nov-17 18:28N 26°05' W 080°11'0 0.0
2017-Nov-17 17:58N 26°05' W 080°11'0 0.0
2017-Nov-17 17:28N 26°05' W 080°11'0 0.0
2017-Nov-17 16:58N 26°05' W 080°11'0 0.0
2017-Nov-17 16:28N 26°05' W 080°11'0 0.0
2017-Nov-17 15:58N 26°05' W 080°11'0 0.0
2017-Nov-17 15:28N 26°05' W 080°11'0 0.0
2017-Nov-17 14:58N 26°05' W 080°11'0 0.0
2017-Nov-17 14:28N 26°05' W 080°11'0 0.0
2017-Nov-17 13:58N 26°05' W 080°11'0 0.0
2017-Nov-17 13:19N 26°05' W 080°11'0 0.0
2017-Nov-17 12:49N 26°05' W 080°11'0 0.0
2017-Nov-17 12:19N 26°05' W 080°11'0 0.0
2017-Nov-17 11:52N 26°05' W 080°11'0 0.0
2017-Nov-17 11:22N 26°05' W 080°11'0 0.0
2017-Nov-17 10:52N 26°05' W 080°11'0 0.0
2017-Nov-17 10:22N 26°05' W 080°11'0 0.0
2017-Nov-17 09:52N 26°05' W 080°11'0 0.0
2017-Nov-17 09:22N 26°05' W 080°11'0 0.0
2017-Nov-17 08:55N 26°05' W 080°11'0 0.0
2017-Nov-17 08:25N 26°05' W 080°11'0 0.0
2017-Nov-17 07:52N 26°05' W 080°11'0 0.0
2017-Nov-17 07:25N 26°05' W 080°11'0 0.0
2017-Nov-17 06:55N 26°05' W 080°11'0 0.0
2017-Nov-17 06:25N 26°05' W 080°11'0 0.0
2017-Nov-17 05:58N 26°05' W 080°11'0 0.0
2017-Nov-17 05:28N 26°05' W 080°11'0 0.0
2017-Nov-17 04:58N 26°05' W 080°11'0 0.0
2017-Nov-17 04:28N 26°05' W 080°11'0 0.0
2017-Nov-17 03:58N 26°05' W 080°11'0 0.0
2017-Nov-17 03:28N 26°05' W 080°11'0 0.0
2017-Nov-17 02:58N 26°05' W 080°11'0 0.0
2017-Nov-17 02:25N 26°05' W 080°11'0 0.0
2017-Nov-17 01:58N 26°05' W 080°11'0 0.0
2017-Nov-17 01:28N 26°05' W 080°11'0 0.0
2017-Nov-17 00:58N 26°05' W 080°11'0 0.0
2017-Nov-17 00:28N 26°05' W 080°11'0 0.0
2017-Nov-16 23:58N 26°05' W 080°11'0 0.0
2017-Nov-16 23:19N 26°05' W 080°11'0 0.0
2017-Nov-16 22:49N 26°05' W 080°11'0 0.0
2017-Nov-16 22:19N 26°05' W 080°11'0 0.0
2017-Nov-16 21:52N 26°05' W 080°11'0 0.0
2017-Nov-16 21:22N 26°05' W 080°11'0 0.0
2017-Nov-16 20:52N 26°05' W 080°11'0 0.0
2017-Nov-16 20:22N 26°05' W 080°11'0 0.0
2017-Nov-16 19:52N 26°05' W 080°11'0 0.0
2017-Nov-16 19:25N 26°05' W 080°11'0 0.0
2017-Nov-16 18:55N 26°05' W 080°11'0 0.0
2017-Nov-16 18:22N 26°05' W 080°11'0 0.0
2017-Nov-16 17:55N 26°05' W 080°11'0 0.0
2017-Nov-16 17:25N 26°05' W 080°11'0 0.0
2017-Nov-16 16:58N 26°05' W 080°11'0 0.0
2017-Nov-16 16:28N 26°05' W 080°11'0 0.0
2017-Nov-16 15:58N 26°05' W 080°11'0 0.0
2017-Nov-16 15:28N 26°05' W 080°11'0 0.0
2017-Nov-16 14:58N 26°05' W 080°11'0 0.0
2017-Nov-16 14:28N 26°05' W 080°11'0 0.0
2017-Nov-16 13:58N 26°05' W 080°11'0 0.0
2017-Nov-16 13:28N 26°05' W 080°11'0 0.0
2017-Nov-16 12:58N 26°05' W 080°11'0 0.0
2017-Nov-16 12:28N 26°05' W 080°11'0 0.0
2017-Nov-16 11:58N 26°05' W 080°11'0 0.0
2017-Nov-16 11:28N 26°05' W 080°11'0 0.0
2017-Nov-16 10:58N 26°05' W 080°11'0 0.0
2017-Nov-16 10:28N 26°05' W 080°11'0 0.0
2017-Nov-16 09:58N 26°05' W 080°11'0 0.0
2017-Nov-16 09:19N 26°05' W 080°11'0 0.0
2017-Nov-16 08:49N 26°05' W 080°11'0 0.0
2017-Nov-16 08:22N 26°05' W 080°11'0 0.0
2017-Nov-16 07:52N 26°05' W 080°11'0 0.0
2017-Nov-16 07:19N 26°05' W 080°11'0 0.0
2017-Nov-16 06:52N 26°05' W 080°11'0 0.0
2017-Nov-16 06:22N 26°05' W 080°11'0 0.0
2017-Nov-16 05:52N 26°05' W 080°11'0 0.0
2017-Nov-16 05:25N 26°05' W 080°11'0 0.0
2017-Nov-16 04:55N 26°05' W 080°11'0 0.0
2017-Nov-16 04:25N 26°05' W 080°11'0 0.0
2017-Nov-16 03:55N 26°05' W 080°11'0 0.0
2017-Nov-16 03:25N 26°05' W 080°11'0 0.0
2017-Nov-16 02:55N 26°05' W 080°11'0 0.0
2017-Nov-16 02:28N 26°05' W 080°11'0 0.0
2017-Nov-16 01:55N 26°05' W 080°11'0 0.0
2017-Nov-16 01:28N 26°05' W 080°11'0 0.0
2017-Nov-16 00:58N 26°05' W 080°11'0 0.0
2017-Nov-16 00:28N 26°05' W 080°11'0 0.0
2017-Nov-15 23:58N 26°05' W 080°11'0 0.0
2017-Nov-15 23:28N 26°05' W 080°11'0 0.0
2017-Nov-15 22:58N 26°05' W 080°11'0 0.0
2017-Nov-15 22:28N 26°05' W 080°11'0 0.0
2017-Nov-15 21:58N 26°05' W 080°11'0 0.0
2017-Nov-15 21:28N 26°05' W 080°11'0 0.0
2017-Nov-15 20:58N 26°05' W 080°11'0 0.0
2017-Nov-15 20:28N 26°05' W 080°11'0 0.0
2017-Nov-15 19:49N 26°05' W 080°11'0 0.0
2017-Nov-15 19:19N 26°05' W 080°11'0 0.0
2017-Nov-15 18:46N 26°05' W 080°11'0 0.0
2017-Nov-15 18:22N 26°05' W 080°11'0 0.0
2017-Nov-15 17:52N 26°05' W 080°11'0 0.0
2017-Nov-15 17:22N 26°05' W 080°11'0 0.0
2017-Nov-15 16:52N 26°05' W 080°11'0 0.0
2017-Nov-15 16:22N 26°05' W 080°11'0 0.0
2017-Nov-15 15:55N 26°05' W 080°11'0 0.0
2017-Nov-15 15:25N 26°05' W 080°11'0 0.0
2017-Nov-15 14:55N 26°05' W 080°11'0 0.0
2017-Nov-15 14:25N 26°05' W 080°11'0 0.0
2017-Nov-15 13:55N 26°05' W 080°11'0 0.0
2017-Nov-15 13:25N 26°05' W 080°11'0 0.0
2017-Nov-15 12:58N 26°05' W 080°11'0 0.0
2017-Nov-15 12:28N 26°05' W 080°11'0 0.0
2017-Nov-15 11:58N 26°05' W 080°11'0 0.0
2017-Nov-15 11:28N 26°05' W 080°11'0 0.0
2017-Nov-15 10:58N 26°05' W 080°11'0 0.0
2017-Nov-15 10:25N 26°05' W 080°11'0 0.0
2017-Nov-15 09:58N 26°05' W 080°11'0 0.0
2017-Nov-15 09:28N 26°05' W 080°11'0 0.0
2017-Nov-15 08:58N 26°05' W 080°11'0 0.0
2017-Nov-15 08:28N 26°05' W 080°11'0 0.0
2017-Nov-15 07:58N 26°05' W 080°11'0 0.0
2017-Nov-15 07:28N 26°05' W 080°11'0 0.0
2017-Nov-15 06:58N 26°05' W 080°11'0 0.0
2017-Nov-15 06:19N 26°05' W 080°11'0 0.0
2017-Nov-15 05:49N 26°05' W 080°11'0 0.0
2017-Nov-15 05:19N 26°05' W 080°11'0 0.0
2017-Nov-15 04:49N 26°05' W 080°11'0 0.0
2017-Nov-15 04:22N 26°05' W 080°11'0 0.0
2017-Nov-15 03:52N 26°05' W 080°11'0 0.0
2017-Nov-15 03:22N 26°05' W 080°11'0 0.0
2017-Nov-15 02:52N 26°05' W 080°11'0 0.0
2017-Nov-15 02:22N 26°05' W 080°11'0 0.0
2017-Nov-15 01:55N 26°05' W 080°11'0 0.0
2017-Nov-15 01:25N 26°05' W 080°11'0 0.0
2017-Nov-15 00:52N 26°05' W 080°11'0 0.0
2017-Nov-15 00:25N 26°05' W 080°11'0 0.0
2017-Nov-14 23:55N 26°05' W 080°11'0 0.0
2017-Nov-14 23:25N 26°05' W 080°11'0 0.0
2017-Nov-14 22:55N 26°05' W 080°11'0 0.0
2017-Nov-14 22:28N 26°05' W 080°11'0 0.0
2017-Nov-14 21:58N 26°05' W 080°11'0 0.0
2017-Nov-14 21:28N 26°05' W 080°11'0 0.0
2017-Nov-14 20:58N 26°05' W 080°11'0 0.0
2017-Nov-14 20:28N 26°05' W 080°11'0 0.0
2017-Nov-14 19:58N 26°05' W 080°11'0 0.0
2017-Nov-14 19:28N 26°05' W 080°11'0 0.0
2017-Nov-14 18:58N 26°05' W 080°11'0 0.0
2017-Nov-14 18:28N 26°05' W 080°11'0 0.0
2017-Nov-14 17:58N 26°05' W 080°11'0 0.0
2017-Nov-14 17:28N 26°05' W 080°11'0 0.0
2017-Nov-14 16:58N 26°05' W 080°11'0 0.0
2017-Nov-14 16:28N 26°05' W 080°11'0 0.0
2017-Nov-14 15:49N 26°05' W 080°11'0 0.0
2017-Nov-14 15:19N 26°05' W 080°11'0 0.0
2017-Nov-14 14:49N 26°05' W 080°11'0 0.0
2017-Nov-14 14:22N 26°05' W 080°11'0 0.0
2017-Nov-14 13:52N 26°05' W 080°11'0 0.0
2017-Nov-14 13:22N 26°05' W 080°11'0 0.0
2017-Nov-14 12:52N 26°05' W 080°11'0 0.0
2017-Nov-14 12:22N 26°05' W 080°11'0 0.0
2017-Nov-14 11:55N 26°05' W 080°11'0 0.0
2017-Nov-14 11:25N 26°05' W 080°11'0 0.0
2017-Nov-14 10:55N 26°05' W 080°11'0 0.0
2017-Nov-14 10:22N 26°05' W 080°11'0 0.0
2017-Nov-14 09:55N 26°05' W 080°11'0 0.0
2017-Nov-14 09:25N 26°05' W 080°11'0 0.0
2017-Nov-14 08:58N 26°05' W 080°11'0 0.0
2017-Nov-14 08:28N 26°05' W 080°11'0 0.0
2017-Nov-14 07:58N 26°05' W 080°11'0 0.0
2017-Nov-14 07:28N 26°05' W 080°11'0 0.0
2017-Nov-14 06:55N 26°05' W 080°11'0 0.0
2017-Nov-14 06:28N 26°05' W 080°11'0 0.0
2017-Nov-14 05:58N 26°05' W 080°11'0 0.0
2017-Nov-14 05:28N 26°05' W 080°11'0 0.0
2017-Nov-14 04:58N 26°05' W 080°11'0 0.0
2017-Nov-14 04:28N 26°05' W 080°11'0 0.0
2017-Nov-14 03:58N 26°05' W 080°11'  
Track history (hours):
 
Tides and Currents Weather Stations Pressure Air Temp Water Temp Dewpoint Dewpoint Depression Visibility Wind Speed Wind Dir Waves Ship Positions

Team Galati

Owner: M. Hixson Aviation LLC, Dallas, TX. More information available from US FCC via Universal Licensing System and Coast Guard Vessel Documentation Center.

Last reported at 2017-Nov-24 03:51 UTC. Time now 2017-Nov-24 04:03 UTC.
Position N 26°12' W 080°06'.

Length 34 m.

Type: Pleasure craft. MMSI: 367649010.

Date/timePositionNaut miles runAvg speedWind from/ knotsBaromVisibWave heightAir tempDewpointWater temp
2017-Nov-24 03:51N 26°12' W 080°06'0 0.0
2017-Nov-24 03:27N 26°12' W 080°06'0 0.0
2017-Nov-24 02:27N 26°12' W 080°06'0 0.0
2017-Nov-24 01:27N 26°12' W 080°06'0 0.0
2017-Nov-24 00:57N 26°12' W 080°06'0 0.0
2017-Nov-23 23:57N 26°12' W 080°06'0 0.0
2017-Nov-23 22:15N 26°12' W 080°06'0 0.0
2017-Nov-23 21:57N 26°12' W 080°06'0 0.0
2017-Nov-23 21:15N 26°12' W 080°06'0 0.0
2017-Nov-23 20:21N 26°12' W 080°06'0 0.0
2017-Nov-23 19:33N 26°12' W 080°06'0 0.0
2017-Nov-23 19:21N 26°12' W 080°06'0 0.0
2017-Nov-23 18:51N 26°12' W 080°06'0 0.0
2017-Nov-23 18:21N 26°12' W 080°06'0 0.0
2017-Nov-23 17:51N 26°12' W 080°06'0 0.0
2017-Nov-23 17:09N 26°12' W 080°06'0 0.0
2017-Nov-23 16:33N 26°12' W 080°06'0 0.0
2017-Nov-23 16:09N 26°12' W 080°06'0 0.0
2017-Nov-23 15:51N 26°12' W 080°06'0 0.0
2017-Nov-23 15:27N 26°12' W 080°06'0 0.0
2017-Nov-23 14:09N 26°12' W 080°06'0 0.0
2017-Nov-23 13:39N 26°12' W 080°06'0 0.0
2017-Nov-23 13:27N 26°12' W 080°06'0 0.0
2017-Nov-23 12:39N 26°12' W 080°06'0 0.0
2017-Nov-23 12:27N 26°12' W 080°06'0 0.0
2017-Nov-23 11:27N 26°12' W 080°06'0 0.0
2017-Nov-23 07:45N 26°12' W 080°06'0 0.0
2017-Nov-23 05:51N 26°12' W 080°06'0 0.0
2017-Nov-23 05:21N 26°12' W 080°06'0 0.0
2017-Nov-23 04:51N 26°12' W 080°06'0 0.0
2017-Nov-23 04:21N 26°12' W 080°06'0 0.0
2017-Nov-23 03:51N 26°12' W 080°06'0 0.0
2017-Nov-23 03:21N 26°12' W 080°06'0 0.0
2017-Nov-23 02:51N 26°12' W 080°06'0 0.0
2017-Nov-23 02:21N 26°12' W 080°06'0 0.0
2017-Nov-23 01:51N 26°12' W 080°06'0 0.0
2017-Nov-23 01:27N 26°12' W 080°06'0 0.0
2017-Nov-23 00:09N 26°12' W 080°06'0 0.0
2017-Nov-22 22:57N 26°12' W 080°06'0 0.0
2017-Nov-22 20:27N 26°12' W 080°06'0 0.0
2017-Nov-22 19:33N 26°12' W 080°06'  
2017-Nov-18 20:30N 26°11' W 080°06'3 6.3
2017-Nov-18 20:00N 26°08' W 080°07'1 2.6
2017-Nov-18 19:25N 26°07' W 080°07'3 5.5
2017-Nov-18 18:53N 26°07' W 080°04'3 7.5
2017-Nov-18 18:26N 26°07' W 080°07'2 4.0
2017-Nov-18 17:55N 26°06' W 080°10'1 2.9
2017-Nov-18 17:28N 26°05' W 080°11'0 0.0
2017-Nov-18 16:49N 26°05' W 080°11'0 0.0
2017-Nov-18 16:19N 26°05' W 080°11'0 0.0
2017-Nov-18 15:49N 26°05' W 080°11'0 0.0
2017-Nov-18 15:22N 26°05' W 080°11'0 0.0
2017-Nov-18 14:49N 26°05' W 080°11'0 0.1
2017-Nov-18 14:19N 26°05' W 080°11'0 0.0
2017-Nov-18 13:52N 26°05' W 080°11'0 0.1
2017-Nov-18 13:22N 26°05' W 080°11'0 0.0
2017-Nov-18 12:55N 26°05' W 080°11'0 0.0
2017-Nov-18 12:25N 26°05' W 080°11'0 0.0
2017-Nov-18 11:55N 26°05' W 080°11'0 0.0
2017-Nov-18 11:25N 26°05' W 080°11'0 0.0
2017-Nov-18 10:55N 26°05' W 080°11'0 0.0
2017-Nov-18 10:28N 26°05' W 080°11'0 0.0
2017-Nov-18 09:58N 26°05' W 080°11'0 0.0
2017-Nov-18 09:25N 26°05' W 080°11'1 1.2
2017-Nov-18 08:58N 26°05' W 080°11'1 1.1
2017-Nov-18 08:28N 26°05' W 080°11'0 0.0
2017-Nov-18 07:28N 26°05' W 080°11'0 0.0
2017-Nov-18 06:58N 26°05' W 080°11'0 0.0
2017-Nov-18 06:28N 26°05' W 080°11'0 0.0
2017-Nov-18 05:58N 26°05' W 080°11'0 0.0
2017-Nov-18 05:28N 26°05' W 080°11'0 0.0
2017-Nov-18 04:58N 26°05' W 080°11'0 0.0
2017-Nov-18 04:28N 26°05' W 080°11'0 0.0
2017-Nov-18 03:58N 26°05' W 080°11'0 0.0
2017-Nov-18 03:19N 26°05' W 080°11'0 0.0
2017-Nov-18 02:52N 26°05' W 080°11'0 0.0
2017-Nov-18 02:19N 26°05' W 080°11'0 0.0
2017-Nov-18 01:52N 26°05' W 080°11'0 0.0
2017-Nov-18 01:22N 26°05' W 080°11'0 0.0
2017-Nov-18 00:52N 26°05' W 080°11'0 0.0
2017-Nov-18 00:22N 26°05' W 080°11'0 0.0
2017-Nov-17 23:55N 26°05' W 080°11'0 0.0
2017-Nov-17 23:25N 26°05' W 080°11'0 0.0
2017-Nov-17 22:52N 26°05' W 080°11'0 0.0
2017-Nov-17 22:25N 26°05' W 080°11'0 0.0
2017-Nov-17 21:55N 26°05' W 080°11'0 0.0
2017-Nov-17 21:25N 26°05' W 080°11'0 0.0
2017-Nov-17 20:52N 26°05' W 080°11'0 0.0
2017-Nov-17 20:25N 26°05' W 080°11'0 0.0
2017-Nov-17 19:58N 26°05' W 080°11'0 0.0
2017-Nov-17 19:28N 26°05' W 080°11'0 0.0
2017-Nov-17 18:58N 26°05' W 080°11'0 0.0
2017-Nov-17 18:28N 26°05' W 080°11'0 0.0
2017-Nov-17 17:58N 26°05' W 080°11'0 0.0
2017-Nov-17 17:28N 26°05' W 080°11'0 0.0
2017-Nov-17 16:58N 26°05' W 080°11'0 0.0
2017-Nov-17 16:28N 26°05' W 080°11'0 0.0
2017-Nov-17 15:58N 26°05' W 080°11'0 0.0
2017-Nov-17 15:28N 26°05' W 080°11'0 0.0
2017-Nov-17 14:58N 26°05' W 080°11'0 0.0
2017-Nov-17 14:28N 26°05' W 080°11'0 0.0
2017-Nov-17 13:58N 26°05' W 080°11'0 0.0
2017-Nov-17 13:19N 26°05' W 080°11'0 0.0
2017-Nov-17 12:49N 26°05' W 080°11'0 0.0
2017-Nov-17 12:19N 26°05' W 080°11'0 0.0
2017-Nov-17 11:52N 26°05' W 080°11'0 0.0
2017-Nov-17 11:22N 26°05' W 080°11'0 0.0
2017-Nov-17 10:52N 26°05' W 080°11'0 0.0
2017-Nov-17 10:22N 26°05' W 080°11'0 0.0
2017-Nov-17 09:52N 26°05' W 080°11'0 0.0
2017-Nov-17 09:22N 26°05' W 080°11'0 0.0
2017-Nov-17 08:55N 26°05' W 080°11'0 0.0
2017-Nov-17 08:25N 26°05' W 080°11'0 0.0
2017-Nov-17 07:52N 26°05' W 080°11'0 0.0
2017-Nov-17 07:25N 26°05' W 080°11'0 0.0
2017-Nov-17 06:55N 26°05' W 080°11'0 0.0
2017-Nov-17 06:25N 26°05' W 080°11'0 0.0
2017-Nov-17 05:58N 26°05' W 080°11'0 0.0
2017-Nov-17 05:28N 26°05' W 080°11'0 0.0
2017-Nov-17 04:58N 26°05' W 080°11'0 0.0
2017-Nov-17 04:28N 26°05' W 080°11'0 0.0
2017-Nov-17 03:58N 26°05' W 080°11'0 0.0
2017-Nov-17 03:28N 26°05' W 080°11'0 0.0
2017-Nov-17 02:58N 26°05' W 080°11'0 0.0
2017-Nov-17 02:25N 26°05' W 080°11'0 0.0
2017-Nov-17 01:58N 26°05' W 080°11'0 0.0
2017-Nov-17 01:28N 26°05' W 080°11'0 0.0
2017-Nov-17 00:58N 26°05' W 080°11'0 0.0
2017-Nov-17 00:28N 26°05' W 080°11'0 0.0
2017-Nov-16 23:58N 26°05' W 080°11'0 0.0
2017-Nov-16 23:19N 26°05' W 080°11'0 0.0
2017-Nov-16 22:49N 26°05' W 080°11'0 0.0
2017-Nov-16 22:19N 26°05' W 080°11'0 0.0
2017-Nov-16 21:52N 26°05' W 080°11'0 0.0
2017-Nov-16 21:22N 26°05' W 080°11'0 0.0
2017-Nov-16 20:52N 26°05' W 080°11'0 0.0
2017-Nov-16 20:22N 26°05' W 080°11'0 0.0
2017-Nov-16 19:52N 26°05' W 080°11'0 0.0
2017-Nov-16 19:25N 26°05' W 080°11'0 0.0
2017-Nov-16 18:55N 26°05' W 080°11'0 0.0
2017-Nov-16 18:22N 26°05' W 080°11'0 0.0
2017-Nov-16 17:55N 26°05' W 080°11'0 0.0
2017-Nov-16 17:25N 26°05' W 080°11'0 0.0
2017-Nov-16 16:58N 26°05' W 080°11'0 0.0
2017-Nov-16 16:28N 26°05' W 080°11'0 0.0
2017-Nov-16 15:58N 26°05' W 080°11'0 0.0
2017-Nov-16 15:28N 26°05' W 080°11'0 0.0
2017-Nov-16 14:58N 26°05' W 080°11'0 0.0
2017-Nov-16 14:28N 26°05' W 080°11'0 0.0
2017-Nov-16 13:58N 26°05' W 080°11'0 0.0
2017-Nov-16 13:28N 26°05' W 080°11'0 0.0
2017-Nov-16 12:58N 26°05' W 080°11'0 0.0
2017-Nov-16 12:28N 26°05' W 080°11'0 0.0
2017-Nov-16 11:58N 26°05' W 080°11'0 0.0
2017-Nov-16 11:28N 26°05' W 080°11'0 0.0
2017-Nov-16 10:58N 26°05' W 080°11'0 0.0
2017-Nov-16 10:28N 26°05' W 080°11'0 0.0
2017-Nov-16 09:58N 26°05' W 080°11'0 0.0
2017-Nov-16 09:19N 26°05' W 080°11'0 0.0
2017-Nov-16 08:49N 26°05' W 080°11'0 0.0
2017-Nov-16 08:22N 26°05' W 080°11'0 0.0
2017-Nov-16 07:52N 26°05' W 080°11'0 0.0
2017-Nov-16 07:19N 26°05' W 080°11'0 0.0
2017-Nov-16 06:52N 26°05' W 080°11'0 0.0
2017-Nov-16 06:22N 26°05' W 080°11'0 0.0
2017-Nov-16 05:52N 26°05' W 080°11'0 0.0
2017-Nov-16 05:25N 26°05' W 080°11'0 0.0
2017-Nov-16 04:55N 26°05' W 080°11'0 0.0
2017-Nov-16 04:25N 26°05' W 080°11'0 0.0
2017-Nov-16 03:55N 26°05' W 080°11'0 0.0
2017-Nov-16 03:25N 26°05' W 080°11'0 0.0
2017-Nov-16 02:55N 26°05' W 080°11'0 0.0
2017-Nov-16 02:28N 26°05' W 080°11'0 0.0
2017-Nov-16 01:55N 26°05' W 080°11'0 0.0
2017-Nov-16 01:28N 26°05' W 080°11'0 0.0
2017-Nov-16 00:58N 26°05' W 080°11'0 0.0
2017-Nov-16 00:28N 26°05' W 080°11'0 0.0
2017-Nov-15 23:58N 26°05' W 080°11'0 0.0
2017-Nov-15 23:28N 26°05' W 080°11'0 0.0
2017-Nov-15 22:58N 26°05' W 080°11'0 0.0
2017-Nov-15 22:28N 26°05' W 080°11'0 0.0
2017-Nov-15 21:58N 26°05' W 080°11'0 0.0
2017-Nov-15 21:28N 26°05' W 080°11'0 0.0
2017-Nov-15 20:58N 26°05' W 080°11'0 0.0
2017-Nov-15 20:28N 26°05' W 080°11'0 0.0
2017-Nov-15 19:49N 26°05' W 080°11'0 0.0
2017-Nov-15 19:19N 26°05' W 080°11'0 0.0
2017-Nov-15 18:46N 26°05' W 080°11'0 0.0
2017-Nov-15 18:22N 26°05' W 080°11'0 0.0
2017-Nov-15 17:52N 26°05' W 080°11'0 0.0
2017-Nov-15 17:22N 26°05' W 080°11'0 0.0
2017-Nov-15 16:52N 26°05' W 080°11'0 0.0
2017-Nov-15 16:22N 26°05' W 080°11'0 0.0
2017-Nov-15 15:55N 26°05' W 080°11'0 0.0
2017-Nov-15 15:25N 26°05' W 080°11'0 0.0
2017-Nov-15 14:55N 26°05' W 080°11'0 0.0
2017-Nov-15 14:25N 26°05' W 080°11'0 0.0
2017-Nov-15 13:55N 26°05' W 080°11'0 0.0
2017-Nov-15 13:25N 26°05' W 080°11'0 0.0
2017-Nov-15 12:58N 26°05' W 080°11'0 0.0
2017-Nov-15 12:28N 26°05' W 080°11'0 0.0
2017-Nov-15 11:58N 26°05' W 080°11'0 0.0
2017-Nov-15 11:28N 26°05' W 080°11'0 0.0
2017-Nov-15 10:58N 26°05' W 080°11'0 0.0
2017-Nov-15 10:25N 26°05' W 080°11'0 0.0
2017-Nov-15 09:58N 26°05' W 080°11'0 0.0
2017-Nov-15 09:28N 26°05' W 080°11'0 0.0
2017-Nov-15 08:58N 26°05' W 080°11'0 0.0
2017-Nov-15 08:28N 26°05' W 080°11'0 0.0
2017-Nov-15 07:58N 26°05' W 080°11'0 0.0
2017-Nov-15 07:28N 26°05' W 080°11'0 0.0
2017-Nov-15 06:58N 26°05' W 080°11'0 0.0
2017-Nov-15 06:19N 26°05' W 080°11'0 0.0
2017-Nov-15 05:49N 26°05' W 080°11'0 0.0
2017-Nov-15 05:19N 26°05' W 080°11'0 0.0
2017-Nov-15 04:49N 26°05' W 080°11'0 0.0
2017-Nov-15 04:22N 26°05' W 080°11'0 0.0
2017-Nov-15 03:52N 26°05' W 080°11'0 0.0
2017-Nov-15 03:22N 26°05' W 080°11'0 0.0
2017-Nov-15 02:52N 26°05' W 080°11'0 0.0
2017-Nov-15 02:22N 26°05' W 080°11'0 0.0
2017-Nov-15 01:55N 26°05' W 080°11'0 0.0
2017-Nov-15 01:25N 26°05' W 080°11'0 0.0
2017-Nov-15 00:52N 26°05' W 080°11'0 0.0
2017-Nov-15 00:25N 26°05' W 080°11'0 0.0
2017-Nov-14 23:55N 26°05' W 080°11'0 0.0
2017-Nov-14 23:25N 26°05' W 080°11'0 0.0
2017-Nov-14 22:55N 26°05' W 080°11'0 0.0
2017-Nov-14 22:28N 26°05' W 080°11'0 0.0
2017-Nov-14 21:58N 26°05' W 080°11'0 0.0
2017-Nov-14 21:28N 26°05' W 080°11'0 0.0
2017-Nov-14 20:58N 26°05' W 080°11'0 0.0
2017-Nov-14 20:28N 26°05' W 080°11'0 0.0
2017-Nov-14 19:58N 26°05' W 080°11'0 0.0
2017-Nov-14 19:28N 26°05' W 080°11'0 0.0
2017-Nov-14 18:58N 26°05' W 080°11'0 0.0
2017-Nov-14 18:28N 26°05' W 080°11'0 0.0
2017-Nov-14 17:58N 26°05' W 080°11'0 0.0
2017-Nov-14 17:28N 26°05' W 080°11'0 0.0
2017-Nov-14 16:58N 26°05' W 080°11'0 0.0
2017-Nov-14 16:28N 26°05' W 080°11'0 0.0
2017-Nov-14 15:49N 26°05' W 080°11'0 0.0
2017-Nov-14 15:19N 26°05' W 080°11'0 0.0
2017-Nov-14 14:49N 26°05' W 080°11'0 0.0
2017-Nov-14 14:22N 26°05' W 080°11'0 0.0
2017-Nov-14 13:52N 26°05' W 080°11'0 0.0
2017-Nov-14 13:22N 26°05' W 080°11'0 0.0
2017-Nov-14 12:52N 26°05' W 080°11'0 0.0
2017-Nov-14 12:22N 26°05' W 080°11'0 0.0
2017-Nov-14 11:55N 26°05' W 080°11'0 0.0
2017-Nov-14 11:25N 26°05' W 080°11'0 0.0
2017-Nov-14 10:55N 26°05' W 080°11'0 0.0
2017-Nov-14 10:22N 26°05' W 080°11'0 0.0
2017-Nov-14 09:55N 26°05' W 080°11'0 0.0
2017-Nov-14 09:25N 26°05' W 080°11'0 0.0
2017-Nov-14 08:58N 26°05' W 080°11'0 0.0
2017-Nov-14 08:28N 26°05' W 080°11'0 0.0
2017-Nov-14 07:58N 26°05' W 080°11'0 0.0
2017-Nov-14 07:28N 26°05' W 080°11'0 0.0
2017-Nov-14 06:55N 26°05' W 080°11'0 0.0
2017-Nov-14 06:28N 26°05' W 080°11'0 0.0
2017-Nov-14 05:58N 26°05' W 080°11'0 0.0
2017-Nov-14 05:28N 26°05' W 080°11'0 0.0
2017-Nov-14 04:58N 26°05' W 080°11'0 0.0
2017-Nov-14 04:28N 26°05' W 080°11'0 0.0
2017-Nov-14 03:58N 26°05' W 080°11'  

Dump ship's entire track history